createdAt,value
2018-12-12T00:01:24.849Z,8.90
2018-12-12T00:03:52.340Z,8.90
2018-12-12T00:06:19.835Z,8.90
2018-12-12T00:08:47.330Z,8.90
2018-12-12T00:11:14.827Z,8.90
2018-12-12T00:13:42.336Z,8.90
2018-12-12T00:16:09.829Z,8.90
2018-12-12T00:18:37.321Z,8.90
2018-12-12T00:21:04.813Z,8.90
2018-12-12T00:23:32.306Z,8.90
2018-12-12T00:25:59.802Z,8.90
2018-12-12T00:28:27.297Z,8.90
2018-12-12T00:30:54.794Z,8.90
2018-12-12T00:33:22.294Z,8.90
2018-12-12T00:35:50.252Z,8.90
2018-12-12T00:38:17.743Z,8.90
2018-12-12T00:40:45.246Z,8.90
2018-12-12T00:43:12.733Z,8.90
2018-12-12T00:45:40.291Z,8.90
2018-12-12T00:48:07.854Z,8.90
2018-12-12T00:50:35.349Z,8.80
2018-12-12T00:53:02.837Z,8.80
2018-12-12T00:55:30.337Z,8.80
2018-12-12T00:57:57.973Z,8.80
2018-12-12T01:00:25.465Z,8.80
2018-12-12T01:02:52.957Z,8.80
2018-12-12T01:05:20.450Z,8.80
2018-12-12T01:07:47.941Z,8.80
2018-12-12T01:10:15.522Z,8.80
2018-12-12T01:12:43.018Z,8.80
2018-12-12T01:15:10.517Z,8.80
2018-12-12T01:17:38.012Z,8.80
2018-12-12T01:20:05.802Z,8.80
2018-12-12T01:22:33.297Z,8.80
2018-12-12T01:25:00.785Z,8.80
2018-12-12T01:27:28.462Z,8.80
2018-12-12T01:29:55.953Z,8.80
2018-12-12T01:32:23.570Z,8.70
2018-12-12T01:34:51.060Z,8.80
2018-12-12T01:37:18.940Z,8.80
2018-12-12T01:39:46.521Z,8.80
2018-12-12T01:42:14.016Z,8.70
2018-12-12T01:44:41.506Z,8.80
2018-12-12T01:47:09.002Z,8.80
2018-12-12T01:49:36.492Z,8.70
2018-12-12T01:52:03.995Z,8.80
2018-12-12T01:54:31.493Z,8.80
2018-12-12T01:56:59.105Z,8.70
2018-12-12T01:59:26.597Z,8.70
2018-12-12T02:01:54.345Z,8.70
2018-12-12T02:04:21.844Z,8.70
2018-12-12T02:06:49.345Z,8.70
2018-12-12T02:09:16.837Z,8.70
2018-12-12T02:11:44.330Z,8.70
2018-12-12T02:14:11.827Z,8.70
2018-12-12T02:16:39.324Z,8.70
2018-12-12T02:19:07.198Z,8.70
2018-12-12T02:21:34.685Z,8.70
2018-12-12T02:24:02.180Z,8.70
2018-12-12T02:26:29.676Z,8.70
2018-12-12T02:28:57.168Z,8.70
2018-12-12T02:31:24.675Z,8.70
2018-12-12T02:33:52.174Z,8.70
2018-12-12T02:36:19.673Z,8.60
2018-12-12T02:38:47.178Z,8.60
2018-12-12T02:41:14.790Z,8.70
2018-12-12T02:43:42.289Z,8.70
2018-12-12T02:46:09.799Z,8.60
2018-12-12T02:48:37.928Z,8.60
2018-12-12T02:51:05.427Z,8.60
2018-12-12T02:53:32.922Z,8.60
2018-12-12T02:56:00.419Z,8.60
2018-12-12T02:58:27.925Z,8.60
2018-12-12T03:00:55.418Z,8.60
2018-12-12T03:03:22.913Z,8.60
2018-12-12T03:05:50.405Z,8.60
2018-12-12T03:08:17.904Z,8.60
2018-12-12T03:10:45.399Z,8.60
2018-12-12T03:13:12.903Z,8.60
2018-12-12T03:15:40.400Z,8.60
2018-12-12T03:18:08.213Z,8.60
2018-12-12T03:20:35.712Z,8.60
2018-12-12T03:23:03.213Z,8.60
2018-12-12T03:25:30.705Z,8.60
2018-12-12T03:27:58.201Z,8.50
2018-12-12T03:30:25.697Z,8.60
2018-12-12T03:32:53.195Z,8.50
2018-12-12T03:35:20.694Z,8.60
2018-12-12T03:37:48.185Z,8.60
2018-12-12T03:40:16.065Z,8.50
2018-12-12T03:42:43.838Z,8.50
2018-12-12T03:45:11.333Z,8.50
2018-12-12T03:47:38.826Z,8.50
2018-12-12T03:50:06.321Z,8.50
2018-12-12T03:52:33.823Z,8.50
2018-12-12T03:55:01.321Z,8.50
2018-12-12T03:57:28.815Z,8.50
2018-12-12T03:59:56.314Z,8.50
2018-12-12T04:02:23.823Z,8.50
2018-12-12T04:04:51.321Z,8.50
2018-12-12T04:07:18.815Z,8.50
2018-12-12T04:09:46.310Z,8.50
2018-12-12T04:12:13.801Z,8.50
2018-12-12T04:14:41.293Z,8.50
2018-12-12T04:17:08.790Z,8.50
2018-12-12T04:19:36.693Z,8.50
2018-12-12T04:22:04.270Z,8.50
2018-12-12T04:24:32.361Z,8.50
2018-12-12T04:26:59.853Z,8.50
2018-12-12T04:29:27.347Z,8.50
2018-12-12T04:31:54.843Z,8.50
2018-12-12T04:34:23.955Z,8.50
2018-12-12T04:36:51.994Z,8.50
2018-12-12T04:39:19.490Z,8.40
2018-12-12T04:41:46.986Z,8.50
2018-12-12T04:44:14.483Z,8.50
2018-12-12T04:46:42.210Z,8.50
2018-12-12T04:49:09.705Z,8.50
2018-12-12T04:51:37.206Z,8.40
2018-12-12T04:54:04.701Z,8.50
2018-12-12T04:56:32.198Z,8.40
2018-12-12T04:58:59.874Z,8.40
2018-12-12T05:01:27.374Z,8.40
2018-12-12T05:03:54.964Z,8.40
2018-12-12T05:06:22.457Z,8.40
2018-12-12T05:08:49.956Z,8.40
2018-12-12T05:11:17.449Z,8.40
2018-12-12T05:13:44.958Z,8.40
2018-12-12T05:16:12.453Z,8.40
2018-12-12T05:18:39.947Z,8.40
2018-12-12T05:21:07.441Z,8.40
2018-12-12T05:23:34.936Z,8.40
2018-12-12T05:26:02.431Z,8.40
2018-12-12T05:28:29.928Z,8.40
2018-12-12T05:30:57.422Z,8.40
2018-12-12T05:33:24.933Z,8.40
2018-12-12T05:35:52.429Z,8.40
2018-12-12T05:38:19.917Z,8.40
2018-12-12T05:40:47.611Z,8.40
2018-12-12T05:43:15.105Z,8.40
2018-12-12T05:45:42.782Z,8.40
2018-12-12T05:48:10.286Z,8.30
2018-12-12T05:50:38.059Z,8.40
2018-12-12T05:53:05.550Z,8.40
2018-12-12T05:55:33.041Z,8.30
2018-12-12T05:58:00.538Z,8.30
2018-12-12T06:00:28.382Z,8.40
2018-12-12T06:02:55.877Z,8.40
2018-12-12T06:05:23.370Z,8.30
2018-12-12T06:07:50.871Z,8.30
2018-12-12T06:10:18.367Z,8.30
2018-12-12T06:12:45.865Z,8.30
2018-12-12T06:15:13.361Z,8.30
2018-12-12T06:17:40.849Z,8.30
2018-12-12T06:20:08.425Z,8.30
2018-12-12T06:22:37.809Z,8.30
2018-12-12T06:25:05.822Z,8.30
2018-12-12T06:27:33.326Z,8.30
2018-12-12T06:30:00.820Z,8.30
2018-12-12T06:32:28.312Z,8.30
2018-12-12T06:34:55.805Z,8.30
2018-12-12T06:37:23.302Z,8.30
2018-12-12T06:39:50.798Z,8.30
2018-12-12T06:42:18.289Z,8.30
2018-12-12T06:44:45.782Z,8.30
2018-12-12T06:47:13.277Z,8.30
2018-12-12T06:49:40.824Z,8.30
2018-12-12T06:52:08.385Z,8.30
2018-12-12T06:54:35.879Z,8.30
2018-12-12T06:57:03.374Z,8.30
2018-12-12T06:59:30.869Z,8.30
2018-12-12T07:01:58.361Z,8.30
2018-12-12T07:04:25.938Z,8.30
2018-12-12T07:06:53.509Z,8.30
2018-12-12T07:09:21.001Z,8.30
2018-12-12T07:11:48.501Z,8.30
2018-12-12T07:14:16.000Z,8.30
2018-12-12T07:16:43.493Z,8.30
2018-12-12T07:19:11.058Z,8.20
2018-12-12T07:21:38.554Z,8.30
2018-12-12T07:24:06.048Z,8.20
2018-12-12T07:26:33.538Z,8.20
2018-12-12T07:29:01.035Z,8.30
2018-12-12T07:31:28.529Z,8.30
2018-12-12T07:34:00.875Z,8.20
2018-12-12T07:36:25.925Z,8.30
2018-12-12T07:38:53.423Z,8.30
2018-12-12T07:41:21.120Z,8.30
2018-12-12T07:43:48.614Z,8.30
2018-12-12T07:46:16.690Z,8.30
2018-12-12T07:48:44.178Z,8.30
2018-12-12T07:51:11.678Z,8.30
2018-12-12T07:53:39.173Z,8.30
2018-12-12T07:56:06.665Z,8.30
2018-12-12T07:58:34.182Z,8.30
2018-12-12T08:01:02.668Z,8.30
2018-12-12T08:03:30.499Z,8.30
2018-12-12T08:05:57.994Z,8.30
2018-12-12T08:08:25.493Z,8.30
2018-12-12T08:10:52.997Z,8.30
2018-12-12T08:13:20.493Z,8.30
2018-12-12T08:15:47.986Z,8.30
2018-12-12T08:18:15.486Z,8.30
2018-12-12T08:20:42.982Z,8.30
2018-12-12T08:23:10.973Z,8.30
2018-12-12T08:25:39.049Z,8.30
2018-12-12T08:28:06.545Z,8.30
2018-12-12T08:30:34.042Z,8.30
2018-12-12T08:33:01.547Z,8.30
2018-12-12T08:35:29.258Z,8.40
2018-12-12T08:37:56.757Z,8.40
2018-12-12T08:40:24.250Z,8.40
2018-12-12T08:42:51.749Z,8.40
2018-12-12T08:45:19.241Z,8.40
2018-12-12T08:47:46.733Z,8.40
2018-12-12T08:50:14.229Z,8.40
2018-12-12T08:52:42.368Z,8.40
2018-12-12T08:55:09.865Z,8.40
2018-12-12T08:57:37.361Z,8.40
2018-12-12T09:00:05.333Z,8.40
2018-12-12T09:02:32.830Z,8.40
2018-12-12T09:05:00.325Z,8.50
2018-12-12T09:07:27.822Z,8.50
2018-12-12T09:09:55.317Z,8.50
2018-12-12T09:12:22.809Z,8.40
2018-12-12T09:14:50.293Z,8.50
2018-12-12T09:17:17.787Z,8.40
2018-12-12T09:19:45.285Z,8.40
2018-12-12T09:22:12.781Z,8.50
2018-12-12T09:24:40.273Z,8.40
2018-12-12T09:27:07.775Z,8.40
2018-12-12T09:29:35.277Z,8.50
2018-12-12T09:32:03.150Z,8.50
2018-12-12T09:34:30.645Z,8.40
2018-12-12T09:36:58.139Z,8.50
2018-12-12T09:39:25.633Z,8.50
2018-12-12T09:41:53.126Z,8.50
2018-12-12T09:44:20.623Z,8.50
2018-12-12T09:46:48.125Z,8.50
2018-12-12T09:49:15.626Z,8.50
2018-12-12T09:51:43.121Z,8.50
2018-12-12T09:54:10.616Z,8.40
2018-12-12T09:56:38.113Z,8.50
2018-12-12T09:59:05.619Z,8.40
2018-12-12T10:01:33.115Z,8.40
2018-12-12T10:04:00.609Z,8.50
2018-12-12T10:06:28.105Z,8.50
2018-12-12T10:08:55.605Z,8.40
2018-12-12T10:11:23.105Z,8.50
2018-12-12T10:13:50.605Z,8.40
2018-12-12T10:16:18.940Z,8.40
2018-12-12T10:18:46.810Z,8.40
2018-12-12T10:21:14.305Z,8.40
2018-12-12T10:23:41.801Z,8.50
2018-12-12T10:26:09.293Z,8.40
2018-12-12T10:28:36.786Z,8.50
2018-12-12T10:31:04.277Z,8.50
2018-12-12T10:33:37.431Z,8.50
2018-12-12T10:36:01.290Z,8.50
2018-12-12T10:38:29.094Z,8.50
2018-12-12T10:40:56.585Z,8.50
2018-12-12T10:43:24.078Z,8.50
2018-12-12T10:45:51.573Z,8.50
2018-12-12T10:48:19.070Z,8.50
2018-12-12T10:50:46.688Z,8.60
2018-12-12T10:53:14.188Z,8.50
2018-12-12T10:55:41.685Z,8.60
2018-12-12T10:58:09.184Z,8.60
2018-12-12T11:00:38.658Z,8.60
2018-12-12T11:03:11.892Z,8.60
2018-12-12T11:05:39.389Z,8.60
2018-12-12T11:08:06.998Z,8.60
2018-12-12T11:10:34.582Z,8.60
2018-12-12T11:13:02.073Z,8.60
2018-12-12T11:15:29.569Z,8.60
2018-12-12T11:17:57.062Z,8.60
2018-12-12T11:20:24.561Z,8.60
2018-12-12T11:22:52.058Z,8.60
2018-12-12T11:25:19.556Z,8.60
2018-12-12T11:27:47.053Z,8.60
2018-12-12T11:30:14.550Z,8.60
2018-12-12T11:32:42.046Z,8.60
2018-12-12T11:35:09.537Z,8.70
2018-12-12T11:37:37.035Z,8.60
2018-12-12T11:40:05.985Z,8.60
2018-12-12T11:42:33.481Z,8.60
2018-12-12T11:45:00.981Z,8.60
2018-12-12T11:47:28.882Z,8.60
2018-12-12T11:49:56.385Z,8.60
2018-12-12T11:52:23.877Z,8.60
2018-12-12T11:54:51.370Z,8.60
2018-12-12T11:57:19.446Z,8.60
2018-12-12T11:59:46.937Z,8.60
2018-12-12T12:02:14.437Z,8.60
2018-12-12T12:04:41.933Z,8.60
2018-12-12T12:07:09.425Z,8.60
2018-12-12T12:09:36.930Z,8.60
2018-12-12T12:12:04.433Z,8.60
2018-12-12T12:14:31.920Z,8.60
2018-12-12T12:16:59.417Z,8.60
2018-12-12T12:19:26.909Z,8.60
2018-12-12T12:21:54.413Z,8.60
2018-12-12T12:24:21.908Z,8.60
2018-12-12T12:26:49.397Z,8.60
2018-12-12T12:29:17.277Z,8.60
2018-12-12T12:31:45.053Z,8.60
2018-12-12T12:34:12.549Z,8.60
2018-12-12T12:36:40.038Z,8.60
2018-12-12T12:39:07.531Z,8.60
2018-12-12T12:41:35.026Z,8.60
2018-12-12T12:44:02.520Z,8.60
2018-12-12T12:46:30.018Z,8.60
2018-12-12T12:48:57.509Z,8.60
2018-12-12T12:51:25.002Z,8.60
2018-12-12T12:53:52.497Z,8.60
2018-12-12T12:56:19.986Z,8.60
2018-12-12T12:58:47.481Z,8.50
2018-12-12T13:01:14.979Z,8.60
2018-12-12T13:03:42.488Z,8.50
2018-12-12T13:06:09.989Z,8.50
2018-12-12T13:08:37.485Z,8.50
2018-12-12T13:11:04.977Z,8.50
2018-12-12T13:13:32.495Z,8.50
2018-12-12T13:16:00.286Z,8.50
2018-12-12T13:18:27.870Z,8.50
2018-12-12T13:20:55.361Z,8.50
2018-12-12T13:23:22.854Z,8.50
2018-12-12T13:25:50.350Z,8.50
2018-12-12T13:28:17.845Z,8.40
2018-12-12T13:30:45.350Z,8.50
2018-12-12T13:33:12.845Z,8.40
2018-12-12T13:35:40.341Z,8.40
2018-12-12T13:38:07.833Z,8.40
2018-12-12T13:40:35.321Z,8.40
2018-12-12T13:43:02.820Z,8.40
2018-12-12T13:45:30.316Z,8.50
2018-12-12T13:47:57.814Z,8.40
2018-12-12T13:50:25.312Z,8.40
2018-12-12T13:52:52.805Z,8.40
2018-12-12T13:55:20.307Z,8.40
2018-12-12T13:57:47.803Z,8.40
2018-12-12T14:00:15.294Z,8.40
2018-12-12T14:02:42.796Z,8.40
2018-12-12T14:05:10.289Z,8.40
2018-12-12T14:07:37.785Z,8.40
2018-12-12T14:10:05.277Z,8.40
2018-12-12T14:12:32.768Z,8.40
2018-12-12T14:15:00.268Z,8.40
2018-12-12T14:17:27.823Z,8.40
2018-12-12T14:19:55.432Z,8.40
2018-12-12T14:22:22.925Z,8.40
2018-12-12T14:24:50.418Z,8.30
2018-12-12T14:27:17.910Z,8.30
2018-12-12T14:29:45.418Z,8.30
2018-12-12T14:32:13.032Z,8.40
2018-12-12T14:34:40.529Z,8.40
2018-12-12T14:37:08.024Z,8.40
2018-12-12T14:39:35.518Z,8.40
2018-12-12T14:42:03.012Z,8.40
2018-12-12T14:44:30.506Z,8.30
2018-12-12T14:46:57.999Z,8.30
2018-12-12T14:49:25.560Z,8.30
2018-12-12T14:51:53.106Z,8.30
2018-12-12T14:54:20.601Z,8.30
2018-12-12T14:56:48.097Z,8.40
2018-12-12T14:59:15.588Z,8.40
2018-12-12T15:01:43.086Z,8.30
2018-12-12T15:04:10.581Z,8.40
2018-12-12T15:06:38.078Z,8.30
2018-12-12T15:09:06.429Z,8.30
2018-12-12T15:11:33.921Z,8.30
2018-12-12T15:14:01.433Z,8.30
2018-12-12T15:16:28.929Z,8.30
2018-12-12T15:18:56.430Z,8.30
2018-12-12T15:21:25.873Z,8.30
2018-12-12T15:23:53.437Z,8.30
2018-12-12T15:26:20.932Z,8.20
2018-12-12T15:28:48.516Z,8.20
2018-12-12T15:31:16.001Z,8.20
2018-12-12T15:33:43.493Z,8.20
2018-12-12T15:36:10.990Z,8.20
2018-12-12T15:38:38.486Z,8.20
2018-12-12T15:41:05.980Z,8.20
2018-12-12T15:43:33.474Z,8.20
2018-12-12T15:46:00.970Z,8.20
2018-12-12T15:48:28.465Z,8.20
2018-12-12T15:50:55.956Z,8.10
2018-12-12T15:53:23.450Z,8.10
2018-12-12T15:55:50.945Z,8.10
2018-12-12T15:58:18.441Z,8.10
2018-12-12T16:00:45.933Z,8.10
2018-12-12T16:03:13.909Z,8.10
2018-12-12T16:05:41.405Z,8.10
2018-12-12T16:08:08.896Z,8.10
2018-12-12T16:10:36.399Z,8.10
2018-12-12T16:13:03.892Z,8.10
2018-12-12T16:15:31.381Z,8.10
2018-12-12T16:17:58.877Z,8.10
2018-12-12T16:20:26.379Z,8.10
2018-12-12T16:22:53.877Z,8.10
2018-12-12T16:25:21.373Z,8.10
2018-12-12T16:27:48.874Z,8.00
2018-12-12T16:30:16.370Z,8.10
2018-12-12T16:32:43.874Z,8.00
2018-12-12T16:35:11.374Z,8.00
2018-12-12T16:37:38.869Z,8.00
2018-12-12T16:40:06.366Z,8.00
2018-12-12T16:42:33.857Z,8.00
2018-12-12T16:45:01.359Z,8.00
2018-12-12T16:47:28.855Z,8.00
2018-12-12T16:49:56.353Z,8.00
2018-12-12T16:52:23.853Z,8.00
2018-12-12T16:54:51.345Z,8.00
2018-12-12T16:57:18.837Z,8.00
2018-12-12T16:59:46.387Z,8.00
2018-12-12T17:02:13.955Z,7.90
2018-12-12T17:04:41.450Z,7.90
2018-12-12T17:07:08.953Z,7.90
2018-12-12T17:09:36.449Z,7.90
2018-12-12T17:12:03.946Z,7.90
2018-12-12T17:14:31.436Z,7.90
2018-12-12T17:16:58.941Z,7.90
2018-12-12T17:19:26.438Z,7.90
2018-12-12T17:21:53.937Z,7.90
2018-12-12T17:24:21.429Z,7.90
2018-12-12T17:26:48.927Z,7.90
2018-12-12T17:29:16.421Z,7.90
2018-12-12T17:31:43.918Z,7.90
2018-12-12T17:34:11.410Z,7.90
2018-12-12T17:36:38.905Z,7.90
2018-12-12T17:39:06.403Z,7.80
2018-12-12T17:41:33.899Z,7.90
2018-12-12T17:44:01.394Z,7.90
2018-12-12T17:46:28.893Z,7.80
2018-12-12T17:48:56.389Z,7.80
2018-12-12T17:51:23.886Z,7.80
2018-12-12T17:53:51.377Z,7.80
2018-12-12T17:56:18.873Z,7.80
2018-12-12T17:58:46.369Z,7.80
2018-12-12T18:01:13.882Z,7.80
2018-12-12T18:03:41.376Z,7.80
2018-12-12T18:06:08.866Z,7.80
2018-12-12T18:08:36.362Z,7.80
2018-12-12T18:11:03.853Z,7.80
2018-12-12T18:13:31.346Z,7.80
2018-12-12T18:15:58.846Z,7.80
2018-12-12T18:18:26.333Z,7.80
2018-12-12T18:20:53.829Z,7.80
2018-12-12T18:23:21.333Z,7.80
2018-12-12T18:25:48.828Z,7.80
2018-12-12T18:28:16.322Z,7.70
2018-12-12T18:30:43.816Z,7.70
2018-12-12T18:33:11.794Z,7.70
2018-12-12T18:35:39.289Z,7.70
2018-12-12T18:38:06.784Z,7.70
2018-12-12T18:40:34.277Z,7.70
2018-12-12T18:43:01.773Z,7.70
2018-12-12T18:45:29.264Z,7.70
2018-12-12T18:47:56.758Z,7.70
2018-12-12T18:50:24.260Z,7.70
2018-12-12T18:52:51.762Z,7.70
2018-12-12T18:55:19.257Z,7.70
2018-12-12T18:57:46.750Z,7.70
2018-12-12T19:00:14.247Z,7.70
2018-12-12T19:02:41.741Z,7.70
2018-12-12T19:05:09.233Z,7.70
2018-12-12T19:07:36.724Z,7.70
2018-12-12T19:10:06.174Z,7.60
2018-12-12T19:12:33.666Z,7.70
2018-12-12T19:15:02.047Z,7.70
2018-12-12T19:17:29.550Z,7.70
2018-12-12T19:19:57.047Z,7.60
2018-12-12T19:22:24.545Z,7.60
2018-12-12T19:24:52.040Z,7.60
2018-12-12T19:27:19.530Z,7.60
2018-12-12T19:29:47.020Z,7.60
2018-12-12T19:32:14.509Z,7.60
2018-12-12T19:34:42.004Z,7.60
2018-12-12T19:37:09.506Z,7.60
2018-12-12T19:39:37.005Z,7.60
2018-12-12T19:42:04.498Z,7.60
2018-12-12T19:44:31.996Z,7.60
2018-12-12T19:46:59.493Z,7.60
2018-12-12T19:49:27.102Z,7.60
2018-12-12T19:51:54.649Z,7.60
2018-12-12T19:54:22.141Z,7.60
2018-12-12T19:56:49.645Z,7.60
2018-12-12T19:59:17.373Z,7.50
2018-12-12T20:01:44.871Z,7.60
2018-12-12T20:04:12.370Z,7.60
2018-12-12T20:06:39.865Z,7.60
2018-12-12T20:09:07.578Z,7.60
2018-12-12T20:11:35.074Z,7.60
2018-12-12T20:14:02.694Z,7.50
2018-12-12T20:16:30.194Z,7.50
2018-12-12T20:18:57.692Z,7.60
2018-12-12T20:21:25.190Z,7.50
2018-12-12T20:23:52.686Z,7.60
2018-12-12T20:26:20.178Z,7.50
2018-12-12T20:28:47.669Z,7.50
2018-12-12T20:31:15.212Z,7.50
2018-12-12T20:33:42.781Z,7.50
2018-12-12T20:36:10.281Z,7.50
2018-12-12T20:38:37.779Z,7.50
2018-12-12T20:41:05.321Z,7.50
2018-12-12T20:43:32.825Z,7.50
2018-12-12T20:46:00.325Z,7.50
2018-12-12T20:48:27.827Z,7.50
2018-12-12T20:50:55.321Z,7.50
2018-12-12T20:53:22.817Z,7.50
2018-12-12T20:55:50.316Z,7.50
2018-12-12T20:58:18.030Z,7.50
2018-12-12T21:00:45.521Z,7.50
2018-12-12T21:03:13.010Z,7.50
2018-12-12T21:05:40.506Z,7.50
2018-12-12T21:08:07.997Z,7.50
2018-12-12T21:10:35.487Z,7.50
2018-12-12T21:13:02.981Z,7.50
2018-12-12T21:15:30.478Z,7.50
2018-12-12T21:17:57.973Z,7.40
2018-12-12T21:20:25.470Z,7.40
2018-12-12T21:22:52.961Z,7.50
2018-12-12T21:25:23.638Z,7.40
2018-12-12T21:27:51.129Z,7.50
2018-12-12T21:30:18.621Z,7.40
2018-12-12T21:32:46.114Z,7.40
2018-12-12T21:35:13.617Z,7.40
2018-12-12T21:37:41.241Z,7.40
2018-12-12T21:40:08.740Z,7.40
2018-12-12T21:42:36.233Z,7.40
2018-12-12T21:45:04.786Z,7.40
2018-12-12T21:47:32.277Z,7.40
2018-12-12T21:49:59.774Z,7.40
2018-12-12T21:52:27.270Z,7.40
2018-12-12T21:54:54.764Z,7.40
2018-12-12T21:57:22.261Z,7.40
2018-12-12T21:59:49.761Z,7.30
2018-12-12T22:02:17.258Z,7.30
2018-12-12T22:04:45.079Z,7.40
2018-12-12T22:07:12.569Z,7.30
2018-12-12T22:09:40.066Z,7.30
2018-12-12T22:12:07.562Z,7.30
2018-12-12T22:14:35.062Z,7.30
2018-12-12T22:17:02.557Z,7.30
2018-12-12T22:19:30.054Z,7.30
2018-12-12T22:21:57.548Z,7.30
2018-12-12T22:24:25.044Z,7.20
2018-12-12T22:26:52.550Z,7.30
2018-12-12T22:29:20.057Z,7.20
2018-12-12T22:31:47.552Z,7.20
2018-12-12T22:34:15.049Z,7.20
2018-12-12T22:36:42.547Z,7.20
2018-12-12T22:39:10.042Z,7.20
2018-12-12T22:41:37.533Z,7.20
2018-12-12T22:44:05.029Z,7.20
2018-12-12T22:46:32.533Z,7.20
2018-12-12T22:49:00.037Z,7.20
2018-12-12T22:51:27.533Z,7.20
2018-12-12T22:53:55.029Z,7.20
2018-12-12T22:56:22.525Z,7.10
2018-12-12T22:58:50.017Z,7.10
2018-12-12T23:01:22.316Z,7.10
2018-12-12T23:03:49.808Z,7.10
2018-12-12T23:06:20.411Z,7.10
2018-12-12T23:08:46.814Z,7.10
2018-12-12T23:11:14.313Z,7.10
2018-12-12T23:13:41.873Z,7.10
2018-12-12T23:16:09.358Z,7.10
2018-12-12T23:18:36.859Z,7.10
2018-12-12T23:21:04.353Z,7.10
2018-12-12T23:23:31.849Z,7.10
2018-12-12T23:25:59.337Z,7.10
2018-12-12T23:28:26.834Z,7.10
2018-12-12T23:30:54.325Z,7.10
2018-12-12T23:33:21.817Z,7.10
2018-12-12T23:35:49.309Z,7.10
2018-12-12T23:38:16.805Z,7.10
2018-12-12T23:40:44.306Z,7.10
2018-12-12T23:43:11.797Z,7.10
2018-12-12T23:45:39.293Z,7.10
2018-12-12T23:48:06.789Z,7.10
2018-12-12T23:50:34.283Z,7.10
2018-12-12T23:53:01.774Z,7.10
2018-12-12T23:55:29.269Z,7.10
2018-12-12T23:57:56.757Z,7.10
